sensor_id;sensor_type;location;lat;lon;timestamp;temperature;humidity
82231;DHT22;71832;45.138;9.816;2024-01-25T00:01:37;3.70;93.40
82231;DHT22;71832;45.138;9.816;2024-01-25T00:04:06;3.70;93.30
82231;DHT22;71832;45.138;9.816;2024-01-25T00:06:34;3.70;91.80
82231;DHT22;71832;45.138;9.816;2024-01-25T00:09:03;3.70;92.10
82231;DHT22;71832;45.138;9.816;2024-01-25T00:11:31;3.70;91.80
82231;DHT22;71832;45.138;9.816;2024-01-25T00:14:00;3.60;92.20
82231;DHT22;71832;45.138;9.816;2024-01-25T00:16:28;3.60;91.70
82231;DHT22;71832;45.138;9.816;2024-01-25T00:18:56;3.50;91.90
82231;DHT22;71832;45.138;9.816;2024-01-25T00:21:25;3.50;92.00
82231;DHT22;71832;45.138;9.816;2024-01-25T00:23:53;3.50;92.90
82231;DHT22;71832;45.138;9.816;2024-01-25T00:26:21;3.50;93.00
82231;DHT22;71832;45.138;9.816;2024-01-25T00:28:49;3.50;93.50
82231;DHT22;71832;45.138;9.816;2024-01-25T00:31:17;3.50;94.10
82231;DHT22;71832;45.138;9.816;2024-01-25T00:33:45;3.50;93.70
82231;DHT22;71832;45.138;9.816;2024-01-25T00:36:13;3.50;93.20
82231;DHT22;71832;45.138;9.816;2024-01-25T00:38:41;3.50;91.90
82231;DHT22;71832;45.138;9.816;2024-01-25T00:41:10;3.40;92.20
82231;DHT22;71832;45.138;9.816;2024-01-25T00:43:38;3.50;92.70
82231;DHT22;71832;45.138;9.816;2024-01-25T00:46:06;3.30;91.40
82231;DHT22;71832;45.138;9.816;2024-01-25T00:48:34;3.30;91.10
82231;DHT22;71832;45.138;9.816;2024-01-25T00:51:03;3.30;91.70
82231;DHT22;71832;45.138;9.816;2024-01-25T00:53:34;3.30;92.30
82231;DHT22;71832;45.138;9.816;2024-01-25T00:56:02;3.30;92.00
82231;DHT22;71832;45.138;9.816;2024-01-25T00:58:29;3.30;92.60
82231;DHT22;71832;45.138;9.816;2024-01-25T01:00:57;3.30;91.90
82231;DHT22;71832;45.138;9.816;2024-01-25T01:03:26;3.20;90.90
82231;DHT22;71832;45.138;9.816;2024-01-25T01:05:53;3.10;91.10
82231;DHT22;71832;45.138;9.816;2024-01-25T01:08:21;3.10;92.10
82231;DHT22;71832;45.138;9.816;2024-01-25T01:10:49;3.10;93.00
82231;DHT22;71832;45.138;9.816;2024-01-25T01:13:18;3.10;91.40
82231;DHT22;71832;45.138;9.816;2024-01-25T01:15:46;3.10;91.40
82231;DHT22;71832;45.138;9.816;2024-01-25T01:18:14;3.00;92.00
82231;DHT22;71832;45.138;9.816;2024-01-25T01:20:42;3.10;92.50
82231;DHT22;71832;45.138;9.816;2024-01-25T01:23:10;3.10;92.90
82231;DHT22;71832;45.138;9.816;2024-01-25T01:25:38;3.10;93.20
82231;DHT22;71832;45.138;9.816;2024-01-25T01:28:05;3.10;92.70
82231;DHT22;71832;45.138;9.816;2024-01-25T01:30:33;3.10;93.30
82231;DHT22;71832;45.138;9.816;2024-01-25T01:33:00;3.10;93.00
82231;DHT22;71832;45.138;9.816;2024-01-25T01:35:28;3.10;92.20
82231;DHT22;71832;45.138;9.816;2024-01-25T01:37:56;3.00;92.40
82231;DHT22;71832;45.138;9.816;2024-01-25T01:40:23;3.00;93.00
82231;DHT22;71832;45.138;9.816;2024-01-25T01:42:51;3.00;91.70
82231;DHT22;71832;45.138;9.816;2024-01-25T01:45:18;3.00;93.50
82231;DHT22;71832;45.138;9.816;2024-01-25T01:47:46;3.00;93.80
82231;DHT22;71832;45.138;9.816;2024-01-25T01:50:14;3.00;94.30
82231;DHT22;71832;45.138;9.816;2024-01-25T01:52:42;3.00;92.70
82231;DHT22;71832;45.138;9.816;2024-01-25T01:55:10;2.90;92.90
82231;DHT22;71832;45.138;9.816;2024-01-25T01:57:38;3.00;92.20
82231;DHT22;71832;45.138;9.816;2024-01-25T02:00:09;2.90;92.50
82231;DHT22;71832;45.138;9.816;2024-01-25T02:02:37;2.90;93.10
82231;DHT22;71832;45.138;9.816;2024-01-25T02:05:05;2.90;93.00
82231;DHT22;71832;45.138;9.816;2024-01-25T02:07:32;2.80;92.40
82231;DHT22;71832;45.138;9.816;2024-01-25T02:10:01;2.80;92.60
82231;DHT22;71832;45.138;9.816;2024-01-25T02:12:28;2.80;92.60
82231;DHT22;71832;45.138;9.816;2024-01-25T02:14:56;2.80;92.80
82231;DHT22;71832;45.138;9.816;2024-01-25T02:17:24;2.70;93.00
82231;DHT22;71832;45.138;9.816;2024-01-25T02:19:53;2.70;93.30
82231;DHT22;71832;45.138;9.816;2024-01-25T02:22:20;2.60;93.70
82231;DHT22;71832;45.138;9.816;2024-01-25T02:24:48;2.60;93.80
82231;DHT22;71832;45.138;9.816;2024-01-25T02:27:16;2.70;94.00
82231;DHT22;71832;45.138;9.816;2024-01-25T02:29:44;2.70;94.60
82231;DHT22;71832;45.138;9.816;2024-01-25T02:32:11;2.70;92.90
82231;DHT22;71832;45.138;9.816;2024-01-25T02:34:39;2.50;92.10
82231;DHT22;71832;45.138;9.816;2024-01-25T02:37:07;2.50;93.10
82231;DHT22;71832;45.138;9.816;2024-01-25T02:39:35;2.40;92.90
82231;DHT22;71832;45.138;9.816;2024-01-25T02:42:03;2.40;93.40
82231;DHT22;71832;45.138;9.816;2024-01-25T02:44:31;2.30;94.10
82231;DHT22;71832;45.138;9.816;2024-01-25T02:46:59;2.20;94.60
82231;DHT22;71832;45.138;9.816;2024-01-25T02:49:27;2.30;95.40
82231;DHT22;71832;45.138;9.816;2024-01-25T02:51:55;2.30;96.60
82231;DHT22;71832;45.138;9.816;2024-01-25T02:54:23;2.40;96.90
82231;DHT22;71832;45.138;9.816;2024-01-25T02:56:51;2.50;95.50
82231;DHT22;71832;45.138;9.816;2024-01-25T02:59:19;2.50;95.10
82231;DHT22;71832;45.138;9.816;2024-01-25T03:01:48;2.50;94.40
82231;DHT22;71832;45.138;9.816;2024-01-25T03:04:16;2.50;94.90
82231;DHT22;71832;45.138;9.816;2024-01-25T03:06:44;2.50;95.00
82231;DHT22;71832;45.138;9.816;2024-01-25T03:09:13;2.50;94.70
82231;DHT22;71832;45.138;9.816;2024-01-25T03:11:41;2.50;94.50
82231;DHT22;71832;45.138;9.816;2024-01-25T03:14:09;2.50;93.70
82231;DHT22;71832;45.138;9.816;2024-01-25T03:16:37;2.50;93.00
82231;DHT22;71832;45.138;9.816;2024-01-25T03:19:06;2.40;92.20
82231;DHT22;71832;45.138;9.816;2024-01-25T03:21:33;2.30;92.10
82231;DHT22;71832;45.138;9.816;2024-01-25T03:24:01;2.20;92.60
82231;DHT22;71832;45.138;9.816;2024-01-25T03:26:29;2.20;93.30
82231;DHT22;71832;45.138;9.816;2024-01-25T03:28:57;2.10;94.20
82231;DHT22;71832;45.138;9.816;2024-01-25T03:31:25;2.00;95.00
82231;DHT22;71832;45.138;9.816;2024-01-25T03:33:53;2.00;95.20
82231;DHT22;71832;45.138;9.816;2024-01-25T03:36:21;2.00;95.70
82231;DHT22;71832;45.138;9.816;2024-01-25T03:38:49;2.10;96.00
82231;DHT22;71832;45.138;9.816;2024-01-25T03:41:18;2.10;96.30
82231;DHT22;71832;45.138;9.816;2024-01-25T03:43:46;2.10;95.90
82231;DHT22;71832;45.138;9.816;2024-01-25T03:46:14;2.10;95.70
82231;DHT22;71832;45.138;9.816;2024-01-25T03:48:42;2.10;95.30
82231;DHT22;71832;45.138;9.816;2024-01-25T03:51:10;2.10;94.60
82231;DHT22;71832;45.138;9.816;2024-01-25T03:53:37;2.10;94.20
82231;DHT22;71832;45.138;9.816;2024-01-25T03:56:13;2.00;93.70
82231;DHT22;71832;45.138;9.816;2024-01-25T03:58:44;2.00;93.50
82231;DHT22;71832;45.138;9.816;2024-01-25T04:01:13;2.00;93.50
82231;DHT22;71832;45.138;9.816;2024-01-25T04:03:41;2.00;92.90
82231;DHT22;71832;45.138;9.816;2024-01-25T04:06:09;1.90;92.20
82231;DHT22;71832;45.138;9.816;2024-01-25T04:08:37;1.80;92.70
82231;DHT22;71832;45.138;9.816;2024-01-25T04:11:05;1.80;92.60
82231;DHT22;71832;45.138;9.816;2024-01-25T04:13:36;1.70;92.90
82231;DHT22;71832;45.138;9.816;2024-01-25T04:16:04;1.70;93.60
82231;DHT22;71832;45.138;9.816;2024-01-25T04:18:31;1.60;93.90
82231;DHT22;71832;45.138;9.816;2024-01-25T04:21:00;1.60;94.00
82231;DHT22;71832;45.138;9.816;2024-01-25T04:23:27;1.60;93.70
82231;DHT22;71832;45.138;9.816;2024-01-25T04:25:55;1.60;93.60
82231;DHT22;71832;45.138;9.816;2024-01-25T04:28:23;1.60;94.00
82231;DHT22;71832;45.138;9.816;2024-01-25T04:30:50;1.60;93.90
82231;DHT22;71832;45.138;9.816;2024-01-25T04:33:19;1.60;94.10
82231;DHT22;71832;45.138;9.816;2024-01-25T04:35:46;1.60;94.40
82231;DHT22;71832;45.138;9.816;2024-01-25T04:38:19;1.70;94.50
82231;DHT22;71832;45.138;9.816;2024-01-25T04:40:47;1.70;94.30
82231;DHT22;71832;45.138;9.816;2024-01-25T04:43:15;1.70;94.80
82231;DHT22;71832;45.138;9.816;2024-01-25T04:45:42;1.80;95.20
82231;DHT22;71832;45.138;9.816;2024-01-25T04:48:12;1.80;95.10
82231;DHT22;71832;45.138;9.816;2024-01-25T04:50:40;1.80;94.60
82231;DHT22;71832;45.138;9.816;2024-01-25T04:53:08;1.70;94.70
82231;DHT22;71832;45.138;9.816;2024-01-25T04:55:36;1.70;94.70
82231;DHT22;71832;45.138;9.816;2024-01-25T04:58:04;1.70;94.70
82231;DHT22;71832;45.138;9.816;2024-01-25T05:00:32;1.70;94.60
82231;DHT22;71832;45.138;9.816;2024-01-25T05:03:00;1.60;94.20
82231;DHT22;71832;45.138;9.816;2024-01-25T05:05:27;1.60;94.70
82231;DHT22;71832;45.138;9.816;2024-01-25T05:07:58;1.60;95.20
82231;DHT22;71832;45.138;9.816;2024-01-25T05:10:26;1.60;95.30
82231;DHT22;71832;45.138;9.816;2024-01-25T05:12:56;1.60;94.00
82231;DHT22;71832;45.138;9.816;2024-01-25T05:15:24;1.50;94.40
82231;DHT22;71832;45.138;9.816;2024-01-25T05:17:54;1.50;95.10
82231;DHT22;71832;45.138;9.816;2024-01-25T05:20:22;1.40;95.60
82231;DHT22;71832;45.138;9.816;2024-01-25T05:22:52;1.40;95.60
82231;DHT22;71832;45.138;9.816;2024-01-25T05:25:20;1.40;95.80
82231;DHT22;71832;45.138;9.816;2024-01-25T05:27:48;1.40;96.40
82231;DHT22;71832;45.138;9.816;2024-01-25T05:30:16;1.40;95.90
82231;DHT22;71832;45.138;9.816;2024-01-25T05:32:44;1.30;95.90
82231;DHT22;71832;45.138;9.816;2024-01-25T05:35:12;1.30;96.20
82231;DHT22;71832;45.138;9.816;2024-01-25T05:37:41;1.30;96.00
82231;DHT22;71832;45.138;9.816;2024-01-25T05:40:09;1.20;96.00
82231;DHT22;71832;45.138;9.816;2024-01-25T05:42:37;1.20;95.50
82231;DHT22;71832;45.138;9.816;2024-01-25T05:45:06;1.20;95.60
82231;DHT22;71832;45.138;9.816;2024-01-25T05:47:34;1.20;95.50
82231;DHT22;71832;45.138;9.816;2024-01-25T05:50:02;1.20;95.50
82231;DHT22;71832;45.138;9.816;2024-01-25T05:52:34;1.10;95.70
82231;DHT22;71832;45.138;9.816;2024-01-25T05:55:07;1.10;96.00
82231;DHT22;71832;45.138;9.816;2024-01-25T05:57:36;1.10;96.10
82231;DHT22;71832;45.138;9.816;2024-01-25T06:00:17;1.00;96.20
82231;DHT22;71832;45.138;9.816;2024-01-25T06:02:46;1.00;96.50
82231;DHT22;71832;45.138;9.816;2024-01-25T06:05:16;1.00;96.00
82231;DHT22;71832;45.138;9.816;2024-01-25T06:07:47;1.00;96.00
82231;DHT22;71832;45.138;9.816;2024-01-25T06:10:19;1.00;95.30
82231;DHT22;71832;45.138;9.816;2024-01-25T06:12:52;0.80;95.40
82231;DHT22;71832;45.138;9.816;2024-01-25T06:15:24;0.80;96.00
82231;DHT22;71832;45.138;9.816;2024-01-25T06:17:57;0.80;95.90
82231;DHT22;71832;45.138;9.816;2024-01-25T06:20:59;1.00;94.50
82231;DHT22;71832;45.138;9.816;2024-01-25T06:23:32;1.00;93.00
82231;DHT22;71832;45.138;9.816;2024-01-25T06:26:11;0.90;93.60
82231;DHT22;71832;45.138;9.816;2024-01-25T06:28:41;0.90;93.90
82231;DHT22;71832;45.138;9.816;2024-01-25T06:31:15;0.80;94.50
82231;DHT22;71832;45.138;9.816;2024-01-25T06:33:47;0.80;94.60
82231;DHT22;71832;45.138;9.816;2024-01-25T06:36:26;0.80;93.60
82231;DHT22;71832;45.138;9.816;2024-01-25T06:39:02;0.80;93.90
82231;DHT22;71832;45.138;9.816;2024-01-25T06:41:31;0.80;94.20
82231;DHT22;71832;45.138;9.816;2024-01-25T06:44:03;0.80;94.40
82231;DHT22;71832;45.138;9.816;2024-01-25T06:46:41;0.80;95.60
82231;DHT22;71832;45.138;9.816;2024-01-25T06:49:14;0.80;95.70
82231;DHT22;71832;45.138;9.816;2024-01-25T06:51:47;0.70;96.20
82231;DHT22;71832;45.138;9.816;2024-01-25T06:54:19;0.70;95.70
82231;DHT22;71832;45.138;9.816;2024-01-25T06:56:47;0.70;95.90
82231;DHT22;71832;45.138;9.816;2024-01-25T06:59:28;0.60;96.70
82231;DHT22;71832;45.138;9.816;2024-01-25T07:01:58;0.60;98.80
82231;DHT22;71832;45.138;9.816;2024-01-25T07:04:27;0.70;99.10
82231;DHT22;71832;45.138;9.816;2024-01-25T07:06:55;0.70;97.60
82231;DHT22;71832;45.138;9.816;2024-01-25T07:09:23;0.80;97.00
82231;DHT22;71832;45.138;9.816;2024-01-25T07:11:52;0.80;97.00
82231;DHT22;71832;45.138;9.816;2024-01-25T07:14:22;0.80;97.00
82231;DHT22;71832;45.138;9.816;2024-01-25T07:16:55;0.80;97.10
82231;DHT22;71832;45.138;9.816;2024-01-25T07:19:23;0.80;97.30
82231;DHT22;71832;45.138;9.816;2024-01-25T07:21:51;0.80;97.20
82231;DHT22;71832;45.138;9.816;2024-01-25T07:24:26;0.90;97.10
82231;DHT22;71832;45.138;9.816;2024-01-25T07:26:57;1.00;97.40
82231;DHT22;71832;45.138;9.816;2024-01-25T07:29:25;1.00;97.60
82231;DHT22;71832;45.138;9.816;2024-01-25T07:31:55;1.00;98.00
82231;DHT22;71832;45.138;9.816;2024-01-25T07:34:25;1.00;98.40
82231;DHT22;71832;45.138;9.816;2024-01-25T07:36:53;1.00;98.30
82231;DHT22;71832;45.138;9.816;2024-01-25T07:39:21;1.00;98.50
82231;DHT22;71832;45.138;9.816;2024-01-25T07:41:49;1.10;98.20
82231;DHT22;71832;45.138;9.816;2024-01-25T07:44:17;1.10;98.30
82231;DHT22;71832;45.138;9.816;2024-01-25T07:46:46;1.10;98.70
82231;DHT22;71832;45.138;9.816;2024-01-25T07:49:14;1.10;99.30
82231;DHT22;71832;45.138;9.816;2024-01-25T07:51:42;1.10;99.50
82231;DHT22;71832;45.138;9.816;2024-01-25T07:54:10;1.10;99.30
82231;DHT22;71832;45.138;9.816;2024-01-25T07:56:38;1.20;99.20
82231;DHT22;71832;45.138;9.816;2024-01-25T07:59:06;1.30;98.90
82231;DHT22;71832;45.138;9.816;2024-01-25T08:01:35;1.20;98.60
82231;DHT22;71832;45.138;9.816;2024-01-25T08:04:03;1.20;99.20
82231;DHT22;71832;45.138;9.816;2024-01-25T08:06:31;1.20;99.70
82231;DHT22;71832;45.138;9.816;2024-01-25T08:08:59;1.20;99.90
82231;DHT22;71832;45.138;9.816;2024-01-25T08:11:27;1.20;99.90
82231;DHT22;71832;45.138;9.816;2024-01-25T08:13:56;1.30;99.90
82231;DHT22;71832;45.138;9.816;2024-01-25T08:16:25;1.30;99.90
82231;DHT22;71832;45.138;9.816;2024-01-25T08:18:53;1.40;99.90
82231;DHT22;71832;45.138;9.816;2024-01-25T08:21:21;1.50;99.90
82231;DHT22;71832;45.138;9.816;2024-01-25T08:24:04;1.50;99.40
82231;DHT22;71832;45.138;9.816;2024-01-25T08:26:48;1.50;99.00
82231;DHT22;71832;45.138;9.816;2024-01-25T08:29:16;1.60;98.90
82231;DHT22;71832;45.138;9.816;2024-01-25T08:31:44;1.60;98.60
82231;DHT22;71832;45.138;9.816;2024-01-25T08:34:13;1.60;98.20
82231;DHT22;71832;45.138;9.816;2024-01-25T08:36:42;1.70;98.20
82231;DHT22;71832;45.138;9.816;2024-01-25T08:39:18;1.70;98.10
82231;DHT22;71832;45.138;9.816;2024-01-25T08:41:58;1.70;98.00
82231;DHT22;71832;45.138;9.816;2024-01-25T08:44:42;1.70;97.90
82231;DHT22;71832;45.138;9.816;2024-01-25T08:47:19;1.70;97.90
82231;DHT22;71832;45.138;9.816;2024-01-25T08:49:58;1.70;97.90
82231;DHT22;71832;45.138;9.816;2024-01-25T08:52:29;1.80;98.00
82231;DHT22;71832;45.138;9.816;2024-01-25T08:55:07;1.80;98.10
82231;DHT22;71832;45.138;9.816;2024-01-25T08:57:44;1.80;98.00
82231;DHT22;71832;45.138;9.816;2024-01-25T09:00:17;1.80;98.30
82231;DHT22;71832;45.138;9.816;2024-01-25T09:02:49;1.90;98.70
82231;DHT22;71832;45.138;9.816;2024-01-25T09:05:22;1.90;98.90
82231;DHT22;71832;45.138;9.816;2024-01-25T09:08:14;1.90;98.80
82231;DHT22;71832;45.138;9.816;2024-01-25T09:10:47;2.00;98.90
82231;DHT22;71832;45.138;9.816;2024-01-25T09:13:32;2.10;98.60
82231;DHT22;71832;45.138;9.816;2024-01-25T09:16:38;2.10;98.10
82231;DHT22;71832;45.138;9.816;2024-01-25T09:19:12;2.20;98.00
82231;DHT22;71832;45.138;9.816;2024-01-25T09:21:49;2.30;98.10
82231;DHT22;71832;45.138;9.816;2024-01-25T09:24:25;2.40;97.90
82231;DHT22;71832;45.138;9.816;2024-01-25T09:27:07;2.40;98.20
82231;DHT22;71832;45.138;9.816;2024-01-25T09:29:50;2.50;98.30
82231;DHT22;71832;45.138;9.816;2024-01-25T09:32:34;2.50;98.50
82231;DHT22;71832;45.138;9.816;2024-01-25T09:35:09;2.60;98.60
82231;DHT22;71832;45.138;9.816;2024-01-25T09:37:52;2.70;98.20
82231;DHT22;71832;45.138;9.816;2024-01-25T09:40:30;2.80;97.90
82231;DHT22;71832;45.138;9.816;2024-01-25T09:43:42;2.80;97.70
82231;DHT22;71832;45.138;9.816;2024-01-25T09:45:59;2.90;97.90
82231;DHT22;71832;45.138;9.816;2024-01-25T09:48:43;3.00;98.30
82231;DHT22;71832;45.138;9.816;2024-01-25T09:51:43;3.10;98.60
82231;DHT22;71832;45.138;9.816;2024-01-25T09:54:22;3.10;98.90
82231;DHT22;71832;45.138;9.816;2024-01-25T09:59:50;3.30;99.20
82231;DHT22;71832;45.138;9.816;2024-01-25T10:02:27;3.40;99.10
82231;DHT22;71832;45.138;9.816;2024-01-25T10:04:55;3.50;99.10
82231;DHT22;71832;45.138;9.816;2024-01-25T10:07:46;3.50;99.30
82231;DHT22;71832;45.138;9.816;2024-01-25T10:10:15;3.60;99.50
82231;DHT22;71832;45.138;9.816;2024-01-25T10:12:44;3.70;99.50
82231;DHT22;71832;45.138;9.816;2024-01-25T10:15:12;3.80;99.20
82231;DHT22;71832;45.138;9.816;2024-01-25T10:17:49;3.90;99.50
82231;DHT22;71832;45.138;9.816;2024-01-25T10:20:20;3.90;99.30
82231;DHT22;71832;45.138;9.816;2024-01-25T10:22:51;4.00;99.30
82231;DHT22;71832;45.138;9.816;2024-01-25T10:25:20;4.00;99.10
82231;DHT22;71832;45.138;9.816;2024-01-25T10:27:49;4.10;99.00
82231;DHT22;71832;45.138;9.816;2024-01-25T10:30:17;4.20;98.70
82231;DHT22;71832;45.138;9.816;2024-01-25T10:32:47;4.30;98.70
82231;DHT22;71832;45.138;9.816;2024-01-25T10:35:17;4.30;98.60
82231;DHT22;71832;45.138;9.816;2024-01-25T10:37:47;4.30;98.30
82231;DHT22;71832;45.138;9.816;2024-01-25T10:40:16;4.40;97.80
82231;DHT22;71832;45.138;9.816;2024-01-25T10:42:46;4.40;97.60
82231;DHT22;71832;45.138;9.816;2024-01-25T10:45:15;4.50;97.50
82231;DHT22;71832;45.138;9.816;2024-01-25T10:47:44;4.50;97.60
82231;DHT22;71832;45.138;9.816;2024-01-25T10:50:15;4.60;97.60
82231;DHT22;71832;45.138;9.816;2024-01-25T10:52:46;4.70;97.90
82231;DHT22;71832;45.138;9.816;2024-01-25T10:55:17;4.80;98.00
82231;DHT22;71832;45.138;9.816;2024-01-25T10:57:45;4.90;98.10
82231;DHT22;71832;45.138;9.816;2024-01-25T11:00:15;5.00;98.10
82231;DHT22;71832;45.138;9.816;2024-01-25T11:02:45;5.10;98.10
82231;DHT22;71832;45.138;9.816;2024-01-25T11:05:15;5.20;97.80
82231;DHT22;71832;45.138;9.816;2024-01-25T11:07:46;5.30;97.80
82231;DHT22;71832;45.138;9.816;2024-01-25T11:10:19;5.40;97.50
82231;DHT22;71832;45.138;9.816;2024-01-25T11:12:54;5.50;97.00
82231;DHT22;71832;45.138;9.816;2024-01-25T11:15:29;5.50;97.00
82231;DHT22;71832;45.138;9.816;2024-01-25T11:17:58;5.60;96.70
82231;DHT22;71832;45.138;9.816;2024-01-25T11:20:30;5.60;96.30
82231;DHT22;71832;45.138;9.816;2024-01-25T11:23:06;5.70;96.20
82231;DHT22;71832;45.138;9.816;2024-01-25T11:25:37;5.80;96.40
82231;DHT22;71832;45.138;9.816;2024-01-25T11:28:06;5.90;96.00
82231;DHT22;71832;45.138;9.816;2024-01-25T11:30:36;6.00;95.30
82231;DHT22;71832;45.138;9.816;2024-01-25T11:33:07;6.10;94.60
82231;DHT22;71832;45.138;9.816;2024-01-25T11:35:36;6.20;94.20
82231;DHT22;71832;45.138;9.816;2024-01-25T11:38:05;6.30;93.70
82231;DHT22;71832;45.138;9.816;2024-01-25T11:40:33;6.30;93.90
82231;DHT22;71832;45.138;9.816;2024-01-25T11:43:05;6.50;92.10
82231;DHT22;71832;45.138;9.816;2024-01-25T11:45:37;6.60;90.90
82231;DHT22;71832;45.138;9.816;2024-01-25T11:48:09;6.70;90.00
82231;DHT22;71832;45.138;9.816;2024-01-25T11:50:38;6.90;88.80
82231;DHT22;71832;45.138;9.816;2024-01-25T11:53:06;7.10;87.90
82231;DHT22;71832;45.138;9.816;2024-01-25T11:55:36;7.20;87.00
82231;DHT22;71832;45.138;9.816;2024-01-25T11:58:04;7.40;86.40
82231;DHT22;71832;45.138;9.816;2024-01-25T12:00:32;7.50;86.40
82231;DHT22;71832;45.138;9.816;2024-01-25T12:03:01;7.80;85.70
82231;DHT22;71832;45.138;9.816;2024-01-25T12:05:30;7.80;83.00
82231;DHT22;71832;45.138;9.816;2024-01-25T12:07:59;7.80;82.90
82231;DHT22;71832;45.138;9.816;2024-01-25T12:10:27;8.00;83.10
82231;DHT22;71832;45.138;9.816;2024-01-25T12:12:56;8.10;82.10
82231;DHT22;71832;45.138;9.816;2024-01-25T12:15:24;8.20;82.50
82231;DHT22;71832;45.138;9.816;2024-01-25T12:17:52;8.40;82.50
82231;DHT22;71832;45.138;9.816;2024-01-25T12:20:21;8.60;81.50
82231;DHT22;71832;45.138;9.816;2024-01-25T12:22:50;8.60;81.80
82231;DHT22;71832;45.138;9.816;2024-01-25T12:25:19;8.80;81.40
82231;DHT22;71832;45.138;9.816;2024-01-25T12:27:48;9.00;79.60
82231;DHT22;71832;45.138;9.816;2024-01-25T12:30:17;9.10;78.60
82231;DHT22;71832;45.138;9.816;2024-01-25T12:32:47;9.20;78.80
82231;DHT22;71832;45.138;9.816;2024-01-25T12:35:15;9.20;79.00
82231;DHT22;71832;45.138;9.816;2024-01-25T12:37:47;9.30;80.20
82231;DHT22;71832;45.138;9.816;2024-01-25T12:40:15;9.40;80.30
82231;DHT22;71832;45.138;9.816;2024-01-25T12:42:44;9.40;80.20
82231;DHT22;71832;45.138;9.816;2024-01-25T12:45:13;9.40;80.40
82231;DHT22;71832;45.138;9.816;2024-01-25T12:47:42;9.50;80.20
82231;DHT22;71832;45.138;9.816;2024-01-25T12:50:10;9.60;79.60
82231;DHT22;71832;45.138;9.816;2024-01-25T12:52:39;9.60;79.20
82231;DHT22;71832;45.138;9.816;2024-01-25T12:55:08;9.40;80.20
82231;DHT22;71832;45.138;9.816;2024-01-25T12:57:36;9.20;80.30
82231;DHT22;71832;45.138;9.816;2024-01-25T13:00:10;9.00;81.10
82231;DHT22;71832;45.138;9.816;2024-01-25T13:02:39;8.90;82.40
82231;DHT22;71832;45.138;9.816;2024-01-25T13:05:08;8.70;83.60
82231;DHT22;71832;45.138;9.816;2024-01-25T13:07:36;8.60;84.30
82231;DHT22;71832;45.138;9.816;2024-01-25T13:10:08;8.60;84.80
82231;DHT22;71832;45.138;9.816;2024-01-25T13:12:39;8.50;85.40
82231;DHT22;71832;45.138;9.816;2024-01-25T13:15:07;8.50;85.20
82231;DHT22;71832;45.138;9.816;2024-01-25T13:17:38;8.40;85.10
82231;DHT22;71832;45.138;9.816;2024-01-25T13:20:06;8.30;85.60
82231;DHT22;71832;45.138;9.816;2024-01-25T13:22:36;8.30;86.50
82231;DHT22;71832;45.138;9.816;2024-01-25T13:25:04;8.30;86.90
82231;DHT22;71832;45.138;9.816;2024-01-25T13:27:33;8.20;87.20
82231;DHT22;71832;45.138;9.816;2024-01-25T13:30:01;8.20;87.20
82231;DHT22;71832;45.138;9.816;2024-01-25T13:32:31;8.20;87.30
82231;DHT22;71832;45.138;9.816;2024-01-25T13:34:59;8.20;87.50
82231;DHT22;71832;45.138;9.816;2024-01-25T13:37:30;8.20;88.20
82231;DHT22;71832;45.138;9.816;2024-01-25T13:40:01;8.20;88.30
82231;DHT22;71832;45.138;9.816;2024-01-25T13:42:31;8.20;88.30
82231;DHT22;71832;45.138;9.816;2024-01-25T13:45:07;8.20;88.00
82231;DHT22;71832;45.138;9.816;2024-01-25T13:47:39;8.20;88.20
82231;DHT22;71832;45.138;9.816;2024-01-25T13:50:07;8.20;88.20
82231;DHT22;71832;45.138;9.816;2024-01-25T13:52:38;8.30;88.30
82231;DHT22;71832;45.138;9.816;2024-01-25T13:55:07;8.30;88.00
82231;DHT22;71832;45.138;9.816;2024-01-25T13:57:36;8.30;88.10
82231;DHT22;71832;45.138;9.816;2024-01-25T14:00:05;8.30;88.20
82231;DHT22;71832;45.138;9.816;2024-01-25T14:02:34;8.30;88.50
82231;DHT22;71832;45.138;9.816;2024-01-25T14:05:03;8.30;88.50
82231;DHT22;71832;45.138;9.816;2024-01-25T14:07:31;8.30;88.60
82231;DHT22;71832;45.138;9.816;2024-01-25T14:10:00;8.30;88.60
82231;DHT22;71832;45.138;9.816;2024-01-25T14:12:29;8.30;88.50
82231;DHT22;71832;45.138;9.816;2024-01-25T14:14:58;8.20;88.60
82231;DHT22;71832;45.138;9.816;2024-01-25T14:17:26;8.20;89.00
82231;DHT22;71832;45.138;9.816;2024-01-25T14:19:55;8.20;89.20
82231;DHT22;71832;45.138;9.816;2024-01-25T14:22:24;8.10;89.60
82231;DHT22;71832;45.138;9.816;2024-01-25T14:24:52;8.10;89.80
82231;DHT22;71832;45.138;9.816;2024-01-25T14:27:21;8.20;90.20
82231;DHT22;71832;45.138;9.816;2024-01-25T14:29:51;8.20;90.40
82231;DHT22;71832;45.138;9.816;2024-01-25T14:32:19;8.20;90.70
82231;DHT22;71832;45.138;9.816;2024-01-25T14:34:49;8.20;91.00
82231;DHT22;71832;45.138;9.816;2024-01-25T14:37:18;8.20;90.80
82231;DHT22;71832;45.138;9.816;2024-01-25T14:39:46;8.20;90.80
82231;DHT22;71832;45.138;9.816;2024-01-25T14:42:15;8.20;90.80
82231;DHT22;71832;45.138;9.816;2024-01-25T14:44:46;8.20;90.80
82231;DHT22;71832;45.138;9.816;2024-01-25T14:47:14;8.10;90.80
82231;DHT22;71832;45.138;9.816;2024-01-25T14:49:47;8.10;90.80
82231;DHT22;71832;45.138;9.816;2024-01-25T14:52:18;8.10;90.90
82231;DHT22;71832;45.138;9.816;2024-01-25T14:54:46;8.10;91.10
82231;DHT22;71832;45.138;9.816;2024-01-25T14:57:13;8.00;91.20
82231;DHT22;71832;45.138;9.816;2024-01-25T14:59:44;8.00;91.30
82231;DHT22;71832;45.138;9.816;2024-01-25T15:02:13;8.00;91.70
82231;DHT22;71832;45.138;9.816;2024-01-25T15:04:41;8.00;91.70
82231;DHT22;71832;45.138;9.816;2024-01-25T15:07:09;8.00;91.80
82231;DHT22;71832;45.138;9.816;2024-01-25T15:09:38;8.00;91.90
82231;DHT22;71832;45.138;9.816;2024-01-25T15:12:07;8.00;92.00
82231;DHT22;71832;45.138;9.816;2024-01-25T15:14:36;7.90;92.10
82231;DHT22;71832;45.138;9.816;2024-01-25T15:17:04;7.90;92.10
82231;DHT22;71832;45.138;9.816;2024-01-25T15:19:32;7.80;92.20
82231;DHT22;71832;45.138;9.816;2024-01-25T15:22:01;7.80;92.20
82231;DHT22;71832;45.138;9.816;2024-01-25T15:24:30;7.80;92.10
82231;DHT22;71832;45.138;9.816;2024-01-25T15:26:59;7.80;91.90
82231;DHT22;71832;45.138;9.816;2024-01-25T15:29:28;7.80;91.80
82231;DHT22;71832;45.138;9.816;2024-01-25T15:31:58;7.80;91.70
82231;DHT22;71832;45.138;9.816;2024-01-25T15:34:27;7.70;91.70
82231;DHT22;71832;45.138;9.816;2024-01-25T15:36:56;7.60;91.70
82231;DHT22;71832;45.138;9.816;2024-01-25T15:39:25;7.60;91.90
82231;DHT22;71832;45.138;9.816;2024-01-25T15:41:53;7.60;92.00
82231;DHT22;71832;45.138;9.816;2024-01-25T15:44:21;7.60;92.10
82231;DHT22;71832;45.138;9.816;2024-01-25T15:46:50;7.50;92.00
82231;DHT22;71832;45.138;9.816;2024-01-25T15:49:19;7.50;92.10
82231;DHT22;71832;45.138;9.816;2024-01-25T15:51:50;7.50;92.10
82231;DHT22;71832;45.138;9.816;2024-01-25T15:54:18;7.50;92.30
82231;DHT22;71832;45.138;9.816;2024-01-25T15:56:47;7.50;92.40
82231;DHT22;71832;45.138;9.816;2024-01-25T15:59:14;7.50;92.30
82231;DHT22;71832;45.138;9.816;2024-01-25T16:01:42;7.40;92.50
82231;DHT22;71832;45.138;9.816;2024-01-25T16:04:10;7.40;92.30
82231;DHT22;71832;45.138;9.816;2024-01-25T16:06:38;7.40;92.20